Time;durP1;ratioP1;P1;durP2;ratioP2;P2;SDS_P1;SDS_P2;PMS_P1;PMS_P2;Temp;Humidity;BMP_temperature;BMP_pressure;BME280_temperature;BME280_humidity;BME280_pressure;Samples;Min_cycle;Max_cycle;Signal;HPM_P1;HPM_P2
2023/07/22 00:02:17;;;;;;;0.40;0.40;;;13.60;99.90;;;;;;5095124;28;20093;-68
2023/07/22 00:04:43;;;;;;;0.40;0.40;;;13.60;99.90;;;;;;5095061;28;20047;-68
2023/07/22 00:07:09;;;;;;;0.50;0.43;;;13.60;99.90;;;;;;5095121;28;20039;-68
2023/07/22 00:09:35;;;;;;;0.30;0.30;;;13.60;99.90;;;;;;5094709;28;20036;-68
2023/07/22 00:12:00;;;;;;;0.60;0.60;;;13.60;99.90;;;;;;5095448;28;20059;-69
2023/07/22 00:14:26;;;;;;;0.40;0.40;;;13.60;99.90;;;;;;5094352;28;20040;-68
2023/07/22 00:16:52;;;;;;;0.40;0.40;;;13.60;99.90;;;;;;5094770;28;20130;-68
2023/07/22 00:19:17;;;;;;;0.40;0.40;;;13.50;99.90;;;;;;5094836;28;20051;-68
2023/07/22 00:21:44;;;;;;;0.63;0.60;;;13.50;99.90;;;;;;5094665;28;20055;-68
2023/07/22 00:24:10;;;;;;;0.32;0.32;;;13.40;99.90;;;;;;5094602;28;20036;-69
2023/07/22 00:26:36;;;;;;;0.40;0.40;;;13.40;99.90;;;;;;5094327;28;20097;-68
2023/07/22 00:29:02;;;;;;;0.40;0.40;;;13.30;99.90;;;;;;5094440;28;20452;-68
2023/07/22 00:31:28;;;;;;;0.43;0.43;;;13.20;99.90;;;;;;5094839;28;20375;-68
2023/07/22 00:33:54;;;;;;;0.40;0.40;;;13.20;99.90;;;;;;5094419;28;20084;-68
2023/07/22 00:36:20;;;;;;;0.60;0.60;;;13.30;99.90;;;;;;5094217;28;20128;-68
2023/07/22 00:38:45;;;;;;;0.50;0.50;;;13.30;99.90;;;;;;5094327;28;20041;-68
2023/07/22 00:41:11;;;;;;;0.40;0.40;;;13.30;99.90;;;;;;5093722;28;20036;-68
2023/07/22 00:43:38;;;;;;;0.50;0.50;;;13.30;99.90;;;;;;5094067;28;20028;-68
2023/07/22 00:46:04;;;;;;;0.65;0.50;;;13.30;99.90;;;;;;5094318;28;20379;-68
2023/07/22 00:48:31;;;;;;;0.82;0.55;;;13.30;99.90;;;;;;5094108;28;20085;-68
2023/07/22 00:50:57;;;;;;;0.50;0.50;;;13.30;99.90;;;;;;5094089;28;20368;-68
2023/07/22 00:53:23;;;;;;;0.50;0.50;;;13.20;99.90;;;;;;5093818;28;20383;-68
2023/07/22 00:55:48;;;;;;;0.83;0.83;;;13.20;99.90;;;;;;5093948;28;20139;-69
2023/07/22 00:58:15;;;;;;;0.50;0.50;;;13.20;99.90;;;;;;5094008;28;20036;-69
2023/07/22 01:00:41;;;;;;;0.40;0.40;;;13.20;99.90;;;;;;5093944;28;20059;-69
2023/07/22 01:03:07;;;;;;;0.30;0.30;;;13.20;99.90;;;;;;5093681;28;20044;-68
2023/07/22 01:05:34;;;;;;;0.95;0.95;;;13.10;99.90;;;;;;5093989;28;20375;-68
2023/07/22 01:08:00;;;;;;;0.40;0.40;;;13.10;99.90;;;;;;5093870;28;20102;-68
2023/07/22 01:10:26;;;;;;;0.60;0.60;;;13.10;99.90;;;;;;5093323;28;20039;-68
2023/07/22 01:12:51;;;;;;;0.50;0.50;;;13.10;99.90;;;;;;5094390;28;20123;-69
2023/07/22 01:15:18;;;;;;;0.40;0.40;;;13.00;99.90;;;;;;5093819;28;20043;-68
2023/07/22 01:17:44;;;;;;;0.40;0.40;;;13.00;99.90;;;;;;5093882;28;20136;-68
2023/07/22 01:20:10;;;;;;;0.40;0.40;;;13.00;99.90;;;;;;5093811;28;20486;-68
2023/07/22 01:22:36;;;;;;;0.40;0.40;;;12.90;99.90;;;;;;5093698;28;20036;-68
2023/07/22 01:25:02;;;;;;;0.40;0.40;;;12.90;99.90;;;;;;5093623;28;20032;-69
2023/07/22 01:27:29;;;;;;;0.40;0.40;;;12.90;99.90;;;;;;5093940;28;20051;-68
2023/07/22 01:29:55;;;;;;;0.47;0.40;;;12.80;99.90;;;;;;5093875;28;20051;-68
2023/07/22 01:32:20;;;;;;;0.40;0.40;;;12.80;99.90;;;;;;5093477;28;20051;-68
2023/07/22 01:34:46;;;;;;;0.50;0.50;;;12.80;99.90;;;;;;5093754;28;20111;-69
2023/07/22 01:37:12;;;;;;;0.40;0.40;;;12.70;99.90;;;;;;5093566;28;20044;-68
2023/07/22 01:39:37;;;;;;;0.50;0.50;;;12.70;99.90;;;;;;5093564;28;20032;-68
2023/07/22 01:42:03;;;;;;;0.40;0.40;;;12.70;99.90;;;;;;5093279;28;20039;-69
2023/07/22 01:44:30;;;;;;;0.50;0.50;;;12.60;99.90;;;;;;5093879;28;20040;-69
2023/07/22 01:46:57;;;;;;;0.50;0.50;;;12.60;99.90;;;;;;5093319;28;20285;-68
2023/07/22 01:49:24;;;;;;;0.40;0.40;;;12.60;99.90;;;;;;5093420;28;20066;-68
2023/07/22 01:51:50;;;;;;;0.40;0.40;;;12.60;99.90;;;;;;5093547;28;20047;-69
2023/07/22 01:54:15;;;;;;;0.40;0.40;;;12.60;99.90;;;;;;5096904;28;20509;-69
2023/07/22 01:56:41;;;;;;;0.40;0.40;;;12.60;99.90;;;;;;5097588;28;20431;-69
2023/07/22 01:59:07;;;;;;;0.65;0.55;;;12.50;99.90;;;;;;5097493;28;20371;-69
2023/07/22 02:01:32;;;;;;;0.73;0.73;;;12.60;99.90;;;;;;5097456;28;20036;-69
2023/07/22 02:03:58;;;;;;;0.40;0.40;;;12.50;99.90;;;;;;5097681;28;20368;-69
2023/07/22 02:06:24;;;;;;;0.30;0.30;;;12.50;99.90;;;;;;5097298;28;20039;-69
2023/07/22 02:08:49;;;;;;;0.40;0.40;;;12.50;99.90;;;;;;5097252;28;20032;-70
2023/07/22 02:11:16;;;;;;;0.52;0.52;;;12.50;99.90;;;;;;5097291;28;20325;-69
2023/07/22 02:13:41;;;;;;;0.40;0.40;;;12.50;99.90;;;;;;5097198;28;20043;-69
2023/07/22 02:16:11;;;;;;;0.40;0.40;;;12.50;99.90;;;;;;5097264;28;20032;-69
2023/07/22 02:18:37;;;;;;;0.40;0.40;;;12.50;99.90;;;;;;5096645;28;20040;-68
2023/07/22 02:21:02;;;;;;;0.57;0.57;;;12.50;99.90;;;;;;5097077;28;20040;-69
2023/07/22 02:23:28;;;;;;;0.50;0.50;;;12.50;99.90;;;;;;5097019;28;20040;-69
2023/07/22 02:25:54;;;;;;;0.40;0.40;;;12.40;99.90;;;;;;5097603;28;20052;-69
2023/07/22 02:28:21;;;;;;;0.30;0.30;;;12.30;99.90;;;;;;5097167;28;20043;-69
2023/07/22 02:30:52;;;;;;;0.40;0.40;;;12.50;99.90;;;;;;5097162;28;20365;-69
2023/07/22 02:33:18;;;;;;;0.40;0.40;;;12.40;99.90;;;;;;5097001;28;20047;-70
2023/07/22 02:35:44;;;;;;;0.30;0.30;;;12.40;99.90;;;;;;5096727;28;20042;-69
2023/07/22 02:38:10;;;;;;;0.63;0.63;;;12.40;99.90;;;;;;5096956;28;20118;-70
2023/07/22 02:40:37;;;;;;;2.83;1.17;;;12.40;99.90;;;;;;5096655;28;20040;-70
2023/07/22 02:43:03;;;;;;;0.40;0.40;;;12.40;99.90;;;;;;5096657;28;20043;-69
2023/07/22 02:45:29;;;;;;;0.30;0.30;;;12.40;99.90;;;;;;5096437;28;20036;-69
2023/07/22 02:47:55;;;;;;;0.40;0.40;;;12.40;99.90;;;;;;5096511;28;20429;-69
2023/07/22 02:50:20;;;;;;;0.50;0.50;;;12.40;99.90;;;;;;5096908;28;20079;-69
2023/07/22 02:52:46;;;;;;;0.40;0.40;;;12.40;99.90;;;;;;5096352;28;20108;-69
2023/07/22 02:55:14;;;;;;;0.40;0.40;;;12.40;99.90;;;;;;5096187;28;20040;-69
2023/07/22 02:57:40;;;;;;;0.40;0.40;;;12.40;99.90;;;;;;5096556;28;20119;-70
2023/07/22 03:00:07;;;;;;;0.40;0.40;;;12.40;99.90;;;;;;5096263;28;20040;-69
2023/07/22 03:02:37;;;;;;;;;;;12.40;99.90;;;;;;5096661;28;20075;-69
2023/07/22 03:05:08;;;;;;;0.40;0.40;;;12.40;99.90;;;;;;5095296;28;20268;-69
2023/07/22 03:07:40;;;;;;;0.50;0.50;;;12.40;99.90;;;;;;5096035;28;20044;-69
2023/07/22 03:10:07;;;;;;;0.50;0.50;;;12.40;99.90;;;;;;5096111;28;20040;-69
2023/07/22 03:12:33;;;;;;;0.52;0.50;;;12.40;99.90;;;;;;5095912;28;20476;-69
2023/07/22 03:14:58;;;;;;;0.60;0.60;;;12.50;99.90;;;;;;5096110;28;20476;-69
2023/07/22 03:17:24;;;;;;;0.50;0.50;;;12.50;99.90;;;;;;5095825;28;20036;-69
2023/07/22 03:19:50;;;;;;;0.50;0.50;;;12.50;99.90;;;;;;5095874;28;20040;-69
2023/07/22 03:22:17;;;;;;;0.40;0.40;;;12.50;99.90;;;;;;5095879;28;20083;-69
2023/07/22 03:24:44;;;;;;;0.50;0.50;;;12.50;99.90;;;;;;5095819;28;20449;-69
2023/07/22 03:27:09;;;;;;;0.45;0.45;;;12.50;99.90;;;;;;5094881;28;20379;-69
2023/07/22 03:29:35;;;;;;;0.50;0.50;;;12.50;99.90;;;;;;5095909;28;20036;-69
2023/07/22 03:32:01;;;;;;;0.63;0.63;;;12.50;99.90;;;;;;5095722;28;20122;-69
2023/07/22 03:34:27;;;;;;;0.50;0.50;;;12.50;99.90;;;;;;5095596;28;20040;-69
2023/07/22 03:36:53;;;;;;;0.50;0.50;;;12.50;99.90;;;;;;5095506;28;20119;-70
2023/07/22 03:39:19;;;;;;;0.40;0.40;;;12.50;99.90;;;;;;5095966;28;20122;-69
2023/07/22 03:41:45;;;;;;;0.50;0.50;;;12.50;99.90;;;;;;5095533;28;20440;-69
2023/07/22 03:44:11;;;;;;;0.40;0.40;;;12.50;99.90;;;;;;5095523;28;20127;-69
2023/07/22 03:46:37;;;;;;;0.40;0.40;;;12.60;99.90;;;;;;5095561;28;20051;-69
2023/07/22 03:49:03;;;;;;;0.40;0.40;;;12.90;99.90;;;;;;5095259;28;20040;-69
2023/07/22 03:51:29;;;;;;;0.40;0.40;;;12.60;99.90;;;;;;5095376;28;20035;-69
2023/07/22 03:53:54;;;;;;;0.40;0.40;;;12.70;99.90;;;;;;5095272;28;20087;-69
2023/07/22 03:56:21;;;;;;;0.40;0.40;;;12.70;99.90;;;;;;5095149;28;20036;-69
2023/07/22 03:58:46;;;;;;;0.43;0.43;;;12.70;99.90;;;;;;5095212;28;20039;-69
2023/07/22 04:01:13;;;;;;;0.40;0.40;;;12.80;99.90;;;;;;5095184;28;20507;-69
2023/07/22 04:03:38;;;;;;;0.40;0.40;;;12.80;99.90;;;;;;5095029;28;20051;-70
2023/07/22 04:06:04;;;;;;;0.40;0.40;;;12.80;99.90;;;;;;5095545;28;20032;-69
2023/07/22 04:08:30;;;;;;;0.50;0.50;;;12.90;99.90;;;;;;5094810;28;20036;-69
2023/07/22 04:10:57;;;;;;;0.40;0.40;;;12.90;99.90;;;;;;5093982;28;20044;-69
2023/07/22 04:13:23;;;;;;;;;;;12.90;99.90;;;;;;5095308;28;20371;-70
2023/07/22 04:15:49;;;;;;;0.40;0.40;;;12.90;99.90;;;;;;5094991;28;19920;-69
2023/07/22 04:18:16;;;;;;;0.50;0.50;;;13.00;99.90;;;;;;5094743;28;20353;-69
2023/07/22 04:20:41;;;;;;;;;;;13.00;99.90;;;;;;5095126;28;20094;-69
2023/07/22 04:23:07;;;;;;;0.50;0.50;;;13.10;99.90;;;;;;5094569;28;19916;-69
2023/07/22 04:25:33;;;;;;;0.40;0.40;;;13.10;99.90;;;;;;5094926;28;20438;-69
2023/07/22 04:27:59;;;;;;;0.40;0.40;;;13.10;99.90;;;;;;5094635;28;20079;-70
2023/07/22 04:30:24;;;;;;;0.50;0.50;;;13.20;99.90;;;;;;5094310;28;20083;-69
2023/07/22 04:32:50;;;;;;;0.40;0.40;;;13.20;99.90;;;;;;5094547;28;20126;-69
2023/07/22 04:35:17;;;;;;;0.43;0.43;;;13.30;99.90;;;;;;5094214;28;20476;-72
2023/07/22 04:37:46;;;;;;;0.40;0.40;;;13.40;99.90;;;;;;5094415;28;20047;-69
2023/07/22 04:40:16;;;;;;;0.55;0.55;;;13.40;99.90;;;;;;5094316;28;20123;-69
2023/07/22 04:42:42;;;;;;;0.40;0.40;;;13.50;99.90;;;;;;5094378;28;20044;-68
2023/07/22 04:45:09;;;;;;;0.60;0.60;;;13.50;99.90;;;;;;5094432;28;20039;-68
2023/07/22 04:47:36;;;;;;;0.40;0.40;;;13.60;99.90;;;;;;5093829;28;20066;-69
2023/07/22 04:50:03;;;;;;;0.40;0.40;;;13.60;99.90;;;;;;5094240;28;20065;-68
2023/07/22 04:52:30;;;;;;;0.50;0.50;;;13.70;99.90;;;;;;5094164;28;20039;-68
2023/07/22 04:54:56;;;;;;;0.40;0.40;;;13.80;99.90;;;;;;5094210;28;20127;-68
2023/07/22 04:57:21;;;;;;;0.60;0.60;;;13.80;99.90;;;;;;5094319;28;20140;-68
2023/07/22 04:59:47;;;;;;;0.57;0.57;;;13.80;99.90;;;;;;5094080;28;20039;-69
2023/07/22 05:02:13;;;;;;;0.60;0.60;;;13.80;99.90;;;;;;5093826;28;20032;-69
2023/07/22 05:04:39;;;;;;;0.65;0.65;;;13.80;99.90;;;;;;5093981;28;20040;-69
2023/07/22 05:07:04;;;;;;;0.40;0.40;;;13.90;99.90;;;;;;5094336;28;20406;-69
2023/07/22 05:09:30;;;;;;;0.50;0.50;;;13.90;99.90;;;;;;5094186;28;20081;-68
2023/07/22 05:11:56;;;;;;;0.40;0.40;;;13.90;99.90;;;;;;5093758;28;20039;-68
2023/07/22 05:14:21;;;;;;;0.75;0.40;;;14.00;99.90;;;;;;5093885;28;20043;-68
2023/07/22 05:16:47;;;;;;;0.60;0.60;;;14.00;99.90;;;;;;5093835;28;20142;-69
2023/07/22 05:19:12;;;;;;;0.60;0.60;;;14.00;99.90;;;;;;5093781;28;20040;-69
2023/07/22 05:21:38;;;;;;;0.40;0.40;;;14.00;99.90;;;;;;5093827;28;20466;-68
2023/07/22 05:24:04;;;;;;;0.52;0.52;;;14.00;99.90;;;;;;5093756;28;20054;-69
2023/07/22 05:26:30;;;;;;;0.77;0.77;;;14.10;99.90;;;;;;5094019;28;20052;-68
2023/07/22 05:28:56;;;;;;;0.52;0.43;;;14.10;99.90;;;;;;5093106;28;20040;-68
2023/07/22 05:31:22;;;;;;;1.87;0.60;;;14.10;99.90;;;;;;5093591;28;20039;-69
2023/07/22 05:33:48;;;;;;;0.70;0.70;;;14.10;99.90;;;;;;5093635;28;20047;-68
2023/07/22 05:36:13;;;;;;;1.67;0.52;;;14.10;99.90;;;;;;5093647;28;20058;-69
2023/07/22 05:38:39;;;;;;;0.50;0.50;;;14.10;99.90;;;;;;5093585;28;20119;-68
2023/07/22 05:41:05;;;;;;;1.45;0.80;;;14.10;99.90;;;;;;5093608;28;20093;-68
2023/07/22 05:43:30;;;;;;;0.63;0.63;;;14.10;99.90;;;;;;5093568;28;20054;-69
2023/07/22 05:45:56;;;;;;;0.50;0.50;;;14.10;99.90;;;;;;5093566;28;20122;-68
2023/07/22 05:48:21;;;;;;;0.50;0.50;;;14.10;99.90;;;;;;5093339;28;20105;-68
2023/07/22 05:50:47;;;;;;;0.73;0.73;;;14.00;99.90;;;;;;5093541;28;20051;-68
2023/07/22 05:53:13;;;;;;;0.40;0.40;;;14.00;99.90;;;;;;5093506;28;20028;-69
2023/07/22 05:55:39;;;;;;;0.97;0.97;;;14.10;99.90;;;;;;5093492;28;20043;-69
2023/07/22 05:58:08;;;;;;;0.67;0.67;;;14.10;99.90;;;;;;5093381;28;20387;-69
2023/07/22 06:00:34;;;;;;;0.43;0.43;;;14.10;99.90;;;;;;5093376;28;20079;-69
2023/07/22 06:02:59;;;;;;;0.43;0.43;;;14.10;99.90;;;;;;5093099;28;20040;-69
2023/07/22 06:05:25;;;;;;;0.50;0.50;;;14.20;99.90;;;;;;5093388;28;20054;-70
2023/07/22 06:07:51;;;;;;;0.77;0.50;;;14.30;99.90;;;;;;5092984;28;20149;-68
2023/07/22 06:10:16;;;;;;;1.05;0.93;;;14.20;99.90;;;;;;5093661;28;20040;-68
2023/07/22 06:12:42;;;;;;;1.80;1.20;;;14.20;99.90;;;;;;5093045;28;20125;-69
2023/07/22 06:15:08;;;;;;;0.50;0.50;;;14.20;99.90;;;;;;5093289;28;20036;-70
2023/07/22 06:17:34;;;;;;;1.10;0.80;;;14.20;99.90;;;;;;5093107;28;20048;-71
2023/07/22 06:20:00;;;;;;;0.60;0.60;;;14.20;99.90;;;;;;5093310;28;20079;-72
2023/07/22 06:22:25;;;;;;;0.50;0.50;;;14.20;99.90;;;;;;5093194;28;20075;-70
2023/07/22 06:24:51;;;;;;;0.60;0.60;;;14.30;99.90;;;;;;5093184;28;20464;-70
2023/07/22 06:27:16;;;;;;;2.63;1.40;;;14.30;99.90;;;;;;5093318;28;20089;-70
2023/07/22 06:29:42;;;;;;;0.97;0.87;;;14.40;99.90;;;;;;5092804;28;20036;-70
2023/07/22 06:32:08;;;;;;;0.50;0.50;;;14.50;99.90;;;;;;5092604;28;20047;-71
2023/07/22 06:34:33;;;;;;;0.47;0.47;;;14.50;99.90;;;;;;5093068;28;20040;-71
2023/07/22 06:36:59;;;;;;;0.43;0.43;;;14.60;99.90;;;;;;5090894;28;20036;-71
2023/07/22 06:39:24;;;;;;;0.50;0.50;;;14.60;99.90;;;;;;5091244;28;20539;-72
2023/07/22 06:41:50;;;;;;;0.57;0.57;;;14.70;99.90;;;;;;5095595;28;20083;-70
2023/07/22 06:44:16;;;;;;;0.70;0.70;;;14.70;99.90;;;;;;5095623;28;20096;-73
2023/07/22 06:46:41;;;;;;;0.80;0.80;;;14.80;99.90;;;;;;5095869;28;20043;-72
2023/07/22 06:49:07;;;;;;;0.60;0.60;;;14.80;99.90;;;;;;5095823;28;20051;-71
2023/07/22 06:51:32;;;;;;;1.07;0.97;;;14.80;99.90;;;;;;5096556;28;20040;-75
2023/07/22 06:53:58;;;;;;;0.73;0.70;;;14.90;99.90;;;;;;5096129;28;20372;-73
2023/07/22 06:56:26;;;;;;;0.80;0.80;;;14.90;99.90;;;;;;5095767;28;20035;-74
2023/07/22 06:58:51;;;;;;;0.50;0.50;;;15.00;99.90;;;;;;5096158;28;20357;-74
2023/07/22 07:01:17;;;;;;;0.50;0.50;;;15.00;99.90;;;;;;5093664;28;20027;-70
2023/07/22 07:03:42;;;;;;;0.65;0.65;;;15.00;99.90;;;;;;5095609;28;20039;-71
2023/07/22 07:06:08;;;;;;;0.85;0.82;;;15.00;99.90;;;;;;5095937;28;20491;-72
2023/07/22 07:08:34;;;;;;;1.07;0.73;;;15.10;99.90;;;;;;5096035;28;20372;-72
2023/07/22 07:11:01;;;;;;;2.00;0.95;;;15.10;99.90;;;;;;5094482;28;20036;-71
2023/07/22 07:13:26;;;;;;;0.50;0.50;;;15.20;99.90;;;;;;5095604;28;20043;-73
2023/07/22 07:15:52;;;;;;;1.37;1.00;;;15.30;99.90;;;;;;5095715;28;20074;-69
2023/07/22 07:18:26;;;;;;;2.45;1.38;;;15.40;99.90;;;;;;5077686;28;20492;-79
2023/07/22 07:20:52;;;;;;;0.70;0.70;;;15.50;99.90;;;;;;5095884;28;20044;-75
2023/07/22 07:23:18;;;;;;;1.43;1.17;;;15.60;99.90;;;;;;5095218;28;20429;-69
2023/07/22 07:25:44;;;;;;;0.60;0.55;;;15.70;99.90;;;;;;5095223;28;20044;-70
2023/07/22 07:28:11;;;;;;;0.50;0.50;;;15.90;99.90;;;;;;5095684;28;20040;-73
2023/07/22 07:30:36;;;;;;;;;;;16.00;99.90;;;;;;5094423;28;20044;-69
2023/07/22 07:33:03;;;;;;;1.08;0.98;;;16.10;99.90;;;;;;5093802;28;19920;-69
2023/07/22 07:35:29;;;;;;;1.38;1.20;;;16.20;99.90;;;;;;5095064;28;20083;-68
2023/07/22 07:37:54;;;;;;;0.90;0.90;;;16.30;99.90;;;;;;5094271;28;20071;-69
2023/07/22 07:40:20;;;;;;;0.88;0.77;;;16.30;99.90;;;;;;5095407;28;20564;-70
2023/07/22 07:42:46;;;;;;;0.77;0.53;;;16.40;99.90;;;;;;5095173;28;20040;-71
2023/07/22 07:45:12;;;;;;;2.20;0.97;;;16.60;99.90;;;;;;5094316;28;20032;-71
2023/07/22 07:47:37;;;;;;;2.80;0.70;;;16.70;99.90;;;;;;5095415;28;20135;-68
2023/07/22 07:50:03;;;;;;;0.57;0.50;;;16.70;99.90;;;;;;5095720;28;20527;-70
2023/07/22 07:52:29;;;;;;;1.70;0.80;;;16.70;99.90;;;;;;5095234;28;20475;-69
2023/07/22 07:54:54;;;;;;;0.80;0.80;;;16.70;99.90;;;;;;5095251;28;20388;-71
2023/07/22 07:57:20;;;;;;;0.70;0.70;;;16.80;99.90;;;;;;5094679;28;20054;-69
2023/07/22 07:59:46;;;;;;;1.43;1.33;;;16.90;99.90;;;;;;5095204;28;20089;-68
2023/07/22 08:02:11;;;;;;;0.88;0.88;;;17.00;99.90;;;;;;5095006;28;20383;-69
2023/07/22 08:04:37;;;;;;;2.20;0.80;;;17.10;99.90;;;;;;5095094;28;20406;-70
2023/07/22 08:07:04;;;;;;;0.83;0.80;;;17.20;99.90;;;;;;5093011;28;20120;-68
2023/07/22 08:09:29;;;;;;;1.67;1.17;;;17.30;99.90;;;;;;5091302;28;20086;-68
2023/07/22 08:11:55;;;;;;;0.57;0.57;;;17.50;99.90;;;;;;5092228;28;20467;-69
2023/07/22 08:14:20;;;;;;;0.93;0.93;;;17.60;99.90;;;;;;5094138;28;20047;-68
2023/07/22 08:16:46;;;;;;;1.00;0.70;;;17.80;99.90;;;;;;5094240;28;20086;-69
2023/07/22 08:19:12;;;;;;;1.03;0.93;;;17.90;99.90;;;;;;5093883;28;20078;-68
2023/07/22 08:21:38;;;;;;;0.80;0.80;;;18.00;99.90;;;;;;5094524;28;20032;-68
2023/07/22 08:24:04;;;;;;;1.77;0.57;;;18.00;99.90;;;;;;5094771;28;20376;-67
2023/07/22 08:26:30;;;;;;;0.30;0.30;;;18.10;99.90;;;;;;5094680;28;20043;-69
2023/07/22 08:28:55;;;;;;;0.50;0.50;;;18.20;99.90;;;;;;5094636;28;20290;-68
2023/07/22 08:31:21;;;;;;;0.37;0.37;;;18.30;99.90;;;;;;5094563;28;20040;-69
2023/07/22 08:33:47;;;;;;;0.70;0.70;;;18.40;99.90;;;;;;5094612;28;20122;-70
2023/07/22 08:36:12;;;;;;;1.07;0.70;;;18.50;99.90;;;;;;5094517;28;20040;-72
2023/07/22 08:38:38;;;;;;;0.60;0.60;;;18.60;99.90;;;;;;5094759;28;20040;-72
2023/07/22 08:41:04;;;;;;;0.63;0.63;;;18.70;99.90;;;;;;5094557;28;20047;-69
2023/07/22 08:43:30;;;;;;;0.80;0.80;;;18.70;99.90;;;;;;5094424;28;20043;-71
2023/07/22 08:46:00;;;;;;;0.57;0.50;;;18.90;99.90;;;;;;5094221;28;20043;-69
2023/07/22 08:48:26;;;;;;;0.57;0.50;;;18.90;99.90;;;;;;5094690;28;20040;-69
2023/07/22 08:51:12;;;;;;;0.30;0.30;;;19.00;99.90;;;;;;5094205;28;20044;-69
2023/07/22 08:53:38;;;;;;;0.70;0.52;;;19.20;99.90;;;;;;5092803;28;20282;-72
2023/07/22 08:56:04;;;;;;;0.40;0.40;;;19.60;99.90;;;;;;5093668;28;20066;-71
2023/07/22 08:58:30;;;;;;;0.40;0.40;;;19.80;99.90;;;;;;5093943;28;20058;-73
2023/07/22 09:00:56;;;;;;;0.73;0.55;;;20.00;99.90;;;;;;5094150;28;20067;-71
2023/07/22 09:03:22;;;;;;;2.23;0.53;;;20.10;99.90;;;;;;5093231;28;20545;-71
2023/07/22 09:05:48;;;;;;;0.77;0.77;;;20.10;99.90;;;;;;5094127;28;20044;-71
2023/07/22 09:08:13;;;;;;;0.70;0.63;;;20.20;99.90;;;;;;5093863;28;20036;-71
2023/07/22 09:10:39;;;;;;;1.20;1.10;;;20.20;99.90;;;;;;5093937;28;20044;-70
2023/07/22 09:13:05;;;;;;;0.30;0.30;;;20.20;99.90;;;;;;5093892;28;20499;-71
2023/07/22 09:15:36;;;;;;;0.30;0.30;;;20.20;99.90;;;;;;5093991;28;20090;-72
2023/07/22 09:18:02;;;;;;;0.40;0.40;;;20.20;99.90;;;;;;5093755;28;20060;-73
2023/07/22 09:20:29;;;;;;;0.50;0.50;;;20.30;99.90;;;;;;5093697;28;20052;-74
2023/07/22 09:22:55;;;;;;;0.63;0.57;;;20.30;99.90;;;;;;5093204;28;20090;-73
2023/07/22 09:25:22;;;;;;;1.02;0.40;;;20.20;99.90;;;;;;5093738;28;20050;-72
2023/07/22 09:27:51;;;;;;;0.77;0.63;;;20.10;99.90;;;;;;5093374;28;20114;-75
2023/07/22 09:30:25;;;;;;;0.50;0.45;;;19.90;99.90;;;;;;5094079;28;20399;-75
2023/07/22 09:32:59;;;;;;;1.85;0.40;;;19.70;99.90;;;;;;5093353;28;20087;-77
2023/07/22 09:35:31;;;;;;;0.35;0.32;;;19.60;99.90;;;;;;5093024;28;20036;-75
2023/07/22 09:37:58;;;;;;;1.02;0.80;;;19.30;99.90;;;;;;5093559;28;20479;-73
2023/07/22 09:40:28;;;;;;;0.47;0.47;;;19.10;99.90;;;;;;5093608;28;20436;-75
2023/07/22 09:42:56;;;;;;;0.35;0.35;;;18.90;99.90;;;;;;5093596;28;20051;-75
2023/07/22 09:45:24;;;;;;;1.25;0.50;;;18.70;99.90;;;;;;5093573;28;20039;-75
2023/07/22 09:47:51;;;;;;;1.98;0.60;;;18.60;99.90;;;;;;5093493;28;20032;-74
2023/07/22 09:50:26;;;;;;;0.40;0.40;;;18.50;99.90;;;;;;5093490;28;20047;-75
2023/07/22 09:52:56;;;;;;;0.50;0.50;;;18.20;99.90;;;;;;5093548;28;20040;-73
2023/07/22 09:55:24;;;;;;;0.38;0.38;;;18.00;99.90;;;;;;5093713;28;20040;-76
2023/07/22 09:57:53;;;;;;;0.40;0.40;;;18.00;99.90;;;;;;5093920;28;20097;-73
2023/07/22 10:00:21;;;;;;;0.25;0.25;;;17.90;99.90;;;;;;5093405;28;20048;-71
2023/07/22 10:02:51;;;;;;;0.43;0.43;;;17.80;99.90;;;;;;5093320;28;20068;-72
2023/07/22 10:05:19;;;;;;;0.68;0.43;;;17.80;99.90;;;;;;5093552;28;20085;-71
2023/07/22 10:07:50;;;;;;;0.30;0.30;;;17.60;99.90;;;;;;5092619;28;20048;-76
2023/07/22 10:10:21;;;;;;;0.68;0.50;;;17.50;99.90;;;;;;5090084;28;20032;-77
2023/07/22 10:12:47;;;;;;;0.30;0.30;;;17.40;99.90;;;;;;5090034;28;20036;-72
2023/07/22 10:15:14;;;;;;;0.30;0.30;;;17.30;99.90;;;;;;5093937;28;20036;-69
2023/07/22 10:17:41;;;;;;;0.60;0.60;;;17.30;99.90;;;;;;5096153;28;20135;-70
2023/07/22 10:20:14;;;;;;;1.63;0.70;;;17.20;99.90;;;;;;5097170;28;20071;-72
2023/07/22 10:22:42;;;;;;;0.52;0.52;;;17.10;99.90;;;;;;5097202;28;20123;-72
2023/07/22 10:25:08;;;;;;;0.47;0.47;;;17.20;99.90;;;;;;5096937;28;20039;-72
2023/07/22 10:27:35;;;;;;;0.60;0.60;;;17.20;99.90;;;;;;5097077;28;20036;-73
2023/07/22 10:30:02;;;;;;;0.50;0.50;;;17.20;99.90;;;;;;5096844;28;20048;-75
2023/07/22 10:32:54;;;;;;;;;;;17.20;99.90;;;;;;5097362;28;20226;-73
2023/07/22 10:35:39;;;;;;;0.30;0.30;;;17.20;99.90;;;;;;5094123;28;20006;-72
2023/07/22 10:38:11;;;;;;;0.63;0.40;;;17.10;99.90;;;;;;5097459;28;20078;-71
2023/07/22 10:40:46;;;;;;;0.40;0.40;;;17.10;99.90;;;;;;5096660;28;20131;-70
2023/07/22 10:43:12;;;;;;;0.65;0.40;;;17.20;99.90;;;;;;5096634;28;20050;-68
2023/07/22 10:45:42;;;;;;;0.50;0.50;;;17.20;99.90;;;;;;5096364;28;20044;-68
2023/07/22 10:48:12;;;;;;;0.50;0.50;;;17.20;99.90;;;;;;5096524;28;20032;-68
2023/07/22 10:50:44;;;;;;;0.38;0.38;;;17.20;99.90;;;;;;5096669;28;20122;-70
2023/07/22 10:53:26;;;;;;;0.40;0.40;;;17.10;99.90;;;;;;5096545;28;20047;-71
2023/07/22 10:56:15;;;;;;;0.45;0.45;;;17.10;99.90;;;;;;5096844;28;20043;-70
2023/07/22 10:58:47;;;;;;;0.47;0.45;;;17.00;99.90;;;;;;5095201;28;20177;-70
2023/07/22 11:01:27;;;;;;;0.50;0.50;;;17.00;99.90;;;;;;5096226;28;20130;-75
2023/07/22 11:04:12;;;;;;;0.40;0.40;;;17.00;99.90;;;;;;5096173;28;20079;-73
2023/07/22 11:06:44;;;;;;;0.35;0.35;;;17.00;99.90;;;;;;5095939;28;20044;-74
2023/07/22 11:09:28;;;;;;;1.25;0.50;;;16.90;99.90;;;;;;5096533;28;20047;-71
2023/07/22 11:11:56;;;;;;;0.30;0.30;;;16.80;99.90;;;;;;5096039;28;20413;-72
2023/07/22 11:14:24;;;;;;;0.60;0.60;;;16.80;99.90;;;;;;5096129;28;20094;-73
2023/07/22 11:16:50;;;;;;;0.75;0.52;;;16.70;99.90;;;;;;5096129;28;20036;-73
2023/07/22 11:19:17;;;;;;;0.37;0.37;;;16.80;99.90;;;;;;5096060;28;20420;-71
2023/07/22 11:21:44;;;;;;;0.57;0.57;;;16.70;99.90;;;;;;5095776;28;20542;-69
2023/07/22 11:24:09;;;;;;;0.50;0.50;;;16.70;99.90;;;;;;5095891;28;20044;-68
2023/07/22 11:26:36;;;;;;;0.40;0.40;;;16.70;99.90;;;;;;5094797;28;20044;-70
2023/07/22 11:29:03;;;;;;;1.45;0.40;;;16.70;99.90;;;;;;5095724;28;20096;-69
2023/07/22 11:31:45;;;;;;;0.30;0.30;;;16.70;99.90;;;;;;5095758;28;20072;-69
2023/07/22 11:34:22;;;;;;;4.85;0.40;;;16.70;99.90;;;;;;5095836;28;20086;-69
2023/07/22 11:36:50;;;;;;;0.38;0.38;;;16.80;99.90;;;;;;5095825;28;20108;-69
2023/07/22 11:39:17;;;;;;;0.50;0.50;;;16.80;99.90;;;;;;5095767;28;20079;-71
2023/07/22 11:41:45;;;;;;;0.52;0.52;;;16.80;99.90;;;;;;5095452;28;20070;-73
2023/07/22 11:44:13;;;;;;;0.50;0.50;;;16.70;99.90;;;;;;5095931;28;20399;-70
2023/07/22 11:47:10;;;;;;;6.53;0.70;;;16.70;99.90;;;;;;5093521;28;20089;-70
2023/07/22 11:49:40;;;;;;;0.52;0.52;;;16.60;99.90;;;;;;5094932;28;20040;-70
2023/07/22 11:52:17;;;;;;;0.40;0.40;;;16.50;99.90;;;;;;5094705;28;20479;-70
2023/07/22 11:54:43;;;;;;;;;;;16.50;99.90;;;;;;5095613;28;20083;-71
2023/07/22 11:57:15;;;;;;;0.68;0.68;;;16.40;99.90;;;;;;5095164;28;20267;-70
2023/07/22 11:59:46;;;;;;;0.57;0.50;;;16.40;99.90;;;;;;5095148;28;20119;-71
2023/07/22 12:02:26;;;;;;;0.45;0.45;;;16.40;99.90;;;;;;5094970;28;20092;-70
2023/07/22 12:05:04;;;;;;;1.10;0.85;;;16.40;99.90;;;;;;5094850;28;20129;-70
2023/07/22 12:07:36;;;;;;;0.40;0.35;;;16.40;99.90;;;;;;5094577;28;20544;-72
2023/07/22 12:10:07;;;;;;;0.40;0.40;;;16.40;99.90;;;;;;5094802;28;20040;-71
2023/07/22 12:12:33;;;;;;;0.47;0.47;;;16.40;99.90;;;;;;5094775;28;20044;-68
2023/07/22 12:15:17;;;;;;;0.55;0.50;;;16.50;99.90;;;;;;5094882;28;20039;-70
2023/07/22 12:17:51;;;;;;;0.65;0.65;;;16.50;99.90;;;;;;5094497;28;20048;-71
2023/07/22 12:20:18;;;;;;;0.50;0.50;;;16.60;99.90;;;;;;5094179;28;20476;-70
2023/07/22 12:22:44;;;;;;;0.40;0.40;;;16.60;99.90;;;;;;5094313;28;20472;-69
2023/07/22 12:25:10;;;;;;;0.57;0.57;;;16.60;99.90;;;;;;5094406;28;20040;-69
2023/07/22 12:27:37;;;;;;;0.35;0.35;;;16.60;99.90;;;;;;5094022;28;20541;-69
2023/07/22 12:30:03;;;;;;;0.45;0.45;;;16.70;99.90;;;;;;5094325;28;20036;-68
2023/07/22 12:32:28;;;;;;;0.70;0.70;;;16.60;99.90;;;;;;5094486;28;20161;-70
2023/07/22 12:34:54;;;;;;;0.30;0.30;;;16.70;99.90;;;;;;5094110;28;20627;-73
2023/07/22 12:37:20;;;;;;;1.40;0.60;;;16.70;99.90;;;;;;5092820;28;20056;-71
2023/07/22 12:39:45;;;;;;;0.40;0.40;;;16.70;99.90;;;;;;5093590;28;20024;-71
2023/07/22 12:42:11;;;;;;;0.50;0.50;;;16.70;99.90;;;;;;5092702;28;20475;-70
2023/07/22 12:44:37;;;;;;;0.93;0.60;;;16.80;99.90;;;;;;5093636;28;20035;-74
2023/07/22 12:47:02;;;;;;;0.40;0.40;;;16.70;99.90;;;;;;5093839;28;20036;-71
2023/07/22 12:49:28;;;;;;;0.53;0.50;;;16.80;99.90;;;;;;5093716;28;20039;-73